sensor_id;sensor_type;location;lat;lon;timestamp;P1;durP1;ratioP1;P2;durP2;ratioP2
13941;SDS011;7043;51.630;7.254;2022-10-10T00:00:34;10.03;;;9.00;;
13941;SDS011;7043;51.630;7.254;2022-10-10T00:03:00;10.00;;;8.93;;
13941;SDS011;7043;51.630;7.254;2022-10-10T00:05:26;8.93;;;8.07;;
13941;SDS011;7043;51.630;7.254;2022-10-10T00:07:52;8.67;;;7.80;;
13941;SDS011;7043;51.630;7.254;2022-10-10T00:10:18;11.00;;;8.60;;
13941;SDS011;7043;51.630;7.254;2022-10-10T00:12:44;11.27;;;9.50;;
13941;SDS011;7043;51.630;7.254;2022-10-10T00:15:10;9.50;;;8.37;;
13941;SDS011;7043;51.630;7.254;2022-10-10T00:17:37;9.30;;;8.20;;
13941;SDS011;7043;51.630;7.254;2022-10-10T00:20:03;9.33;;;8.40;;
13941;SDS011;7043;51.630;7.254;2022-10-10T00:22:29;9.47;;;8.47;;
13941;SDS011;7043;51.630;7.254;2022-10-10T00:24:55;10.10;;;8.37;;
13941;SDS011;7043;51.630;7.254;2022-10-10T00:27:21;10.53;;;8.63;;
13941;SDS011;7043;51.630;7.254;2022-10-10T00:29:47;9.60;;;8.60;;
13941;SDS011;7043;51.630;7.254;2022-10-10T00:32:13;8.97;;;8.07;;
13941;SDS011;7043;51.630;7.254;2022-10-10T00:34:39;9.13;;;8.20;;
13941;SDS011;7043;51.630;7.254;2022-10-10T00:37:05;9.07;;;7.73;;
13941;SDS011;7043;51.630;7.254;2022-10-10T00:39:31;8.50;;;7.70;;
13941;SDS011;7043;51.630;7.254;2022-10-10T00:41:57;9.67;;;7.87;;
13941;SDS011;7043;51.630;7.254;2022-10-10T00:44:23;10.27;;;7.90;;
13941;SDS011;7043;51.630;7.254;2022-10-10T00:46:51;9.37;;;8.33;;
13941;SDS011;7043;51.630;7.254;2022-10-10T00:49:18;9.83;;;8.83;;
13941;SDS011;7043;51.630;7.254;2022-10-10T00:51:46;9.87;;;8.87;;
13941;SDS011;7043;51.630;7.254;2022-10-10T00:54:13;10.37;;;7.97;;
13941;SDS011;7043;51.630;7.254;2022-10-10T00:56:45;8.20;;;7.50;;
13941;SDS011;7043;51.630;7.254;2022-10-10T00:59:12;8.93;;;8.00;;
13941;SDS011;7043;51.630;7.254;2022-10-10T01:01:39;8.27;;;7.47;;
13941;SDS011;7043;51.630;7.254;2022-10-10T01:04:06;8.83;;;7.93;;
13941;SDS011;7043;51.630;7.254;2022-10-10T01:06:32;7.63;;;6.93;;
13941;SDS011;7043;51.630;7.254;2022-10-10T01:08:58;10.10;;;7.63;;
13941;SDS011;7043;51.630;7.254;2022-10-10T01:11:36;9.00;;;7.40;;
13941;SDS011;7043;51.630;7.254;2022-10-10T01:14:19;8.27;;;7.40;;
13941;SDS011;7043;51.630;7.254;2022-10-10T01:16:54;8.27;;;7.50;;
13941;SDS011;7043;51.630;7.254;2022-10-10T01:29:47;9.50;;;8.57;;
13941;SDS011;7043;51.630;7.254;2022-10-10T01:32:24;8.93;;;7.73;;
13941;SDS011;7043;51.630;7.254;2022-10-10T01:37:47;9.00;;;8.10;;
13941;SDS011;7043;51.630;7.254;2022-10-10T01:42:48;9.23;;;8.30;;
13941;SDS011;7043;51.630;7.254;2022-10-10T01:45:15;9.90;;;8.70;;
13941;SDS011;7043;51.630;7.254;2022-10-10T01:47:41;10.17;;;9.17;;
13941;SDS011;7043;51.630;7.254;2022-10-10T01:50:09;10.07;;;8.70;;
13941;SDS011;7043;51.630;7.254;2022-10-10T01:55:06;8.63;;;7.70;;
13941;SDS011;7043;51.630;7.254;2022-10-10T01:57:42;7.93;;;6.80;;
13941;SDS011;7043;51.630;7.254;2022-10-10T02:00:10;8.10;;;6.53;;
13941;SDS011;7043;51.630;7.254;2022-10-10T02:07:57;8.13;;;5.23;;
13941;SDS011;7043;51.630;7.254;2022-10-10T02:10:29;5.07;;;4.30;;
13941;SDS011;7043;51.630;7.254;2022-10-10T02:12:56;4.67;;;3.90;;
13941;SDS011;7043;51.630;7.254;2022-10-10T02:15:24;6.37;;;3.70;;
13941;SDS011;7043;51.630;7.254;2022-10-10T02:17:50;4.93;;;3.47;;
13941;SDS011;7043;51.630;7.254;2022-10-10T02:20:18;4.93;;;3.40;;
13941;SDS011;7043;51.630;7.254;2022-10-10T02:22:45;4.67;;;3.80;;
13941;SDS011;7043;51.630;7.254;2022-10-10T02:25:11;4.63;;;2.87;;
13941;SDS011;7043;51.630;7.254;2022-10-10T02:27:48;6.83;;;3.37;;
13941;SDS011;7043;51.630;7.254;2022-10-10T02:30:17;5.63;;;3.40;;
13941;SDS011;7043;51.630;7.254;2022-10-10T02:32:47;4.40;;;3.33;;
13941;SDS011;7043;51.630;7.254;2022-10-10T02:35:15;3.87;;;3.17;;
13941;SDS011;7043;51.630;7.254;2022-10-10T02:37:42;3.73;;;3.00;;
13941;SDS011;7043;51.630;7.254;2022-10-10T02:40:09;3.63;;;3.17;;
13941;SDS011;7043;51.630;7.254;2022-10-10T02:42:36;3.90;;;3.13;;
13941;SDS011;7043;51.630;7.254;2022-10-10T02:45:03;3.73;;;3.00;;
13941;SDS011;7043;51.630;7.254;2022-10-10T02:47:30;5.47;;;3.80;;
13941;SDS011;7043;51.630;7.254;2022-10-10T02:49:55;6.20;;;3.93;;
13941;SDS011;7043;51.630;7.254;2022-10-10T02:52:21;4.03;;;3.50;;
13941;SDS011;7043;51.630;7.254;2022-10-10T02:54:48;4.07;;;3.67;;
13941;SDS011;7043;51.630;7.254;2022-10-10T02:57:14;6.27;;;4.40;;
13941;SDS011;7043;51.630;7.254;2022-10-10T02:59:40;6.90;;;4.60;;
13941;SDS011;7043;51.630;7.254;2022-10-10T03:02:06;5.47;;;4.47;;
13941;SDS011;7043;51.630;7.254;2022-10-10T03:04:33;5.90;;;5.40;;
13941;SDS011;7043;51.630;7.254;2022-10-10T03:06:59;6.07;;;5.40;;
13941;SDS011;7043;51.630;7.254;2022-10-10T03:09:25;7.43;;;6.27;;
13941;SDS011;7043;51.630;7.254;2022-10-10T03:11:51;8.50;;;6.33;;
13941;SDS011;7043;51.630;7.254;2022-10-10T03:14:17;8.53;;;7.70;;
13941;SDS011;7043;51.630;7.254;2022-10-10T03:16:43;10.20;;;8.50;;
13941;SDS011;7043;51.630;7.254;2022-10-10T03:19:09;9.10;;;8.20;;
13941;SDS011;7043;51.630;7.254;2022-10-10T03:21:35;10.10;;;9.10;;
13941;SDS011;7043;51.630;7.254;2022-10-10T03:24:01;12.13;;;10.33;;
13941;SDS011;7043;51.630;7.254;2022-10-10T03:26:29;13.13;;;10.80;;
13941;SDS011;7043;51.630;7.254;2022-10-10T03:28:55;15.47;;;11.60;;
13941;SDS011;7043;51.630;7.254;2022-10-10T03:31:21;12.27;;;10.97;;
13941;SDS011;7043;51.630;7.254;2022-10-10T03:33:47;10.57;;;9.57;;
13941;SDS011;7043;51.630;7.254;2022-10-10T03:36:13;11.20;;;9.77;;
13941;SDS011;7043;51.630;7.254;2022-10-10T03:38:39;10.10;;;9.10;;
13941;SDS011;7043;51.630;7.254;2022-10-10T03:41:05;11.60;;;9.50;;
13941;SDS011;7043;51.630;7.254;2022-10-10T03:43:31;10.60;;;9.50;;
13941;SDS011;7043;51.630;7.254;2022-10-10T03:45:57;10.90;;;9.70;;
13941;SDS011;7043;51.630;7.254;2022-10-10T03:48:23;11.27;;;9.90;;
13941;SDS011;7043;51.630;7.254;2022-10-10T03:50:49;10.43;;;9.33;;
13941;SDS011;7043;51.630;7.254;2022-10-10T03:53:15;11.40;;;9.90;;
13941;SDS011;7043;51.630;7.254;2022-10-10T03:55:41;11.37;;;9.80;;
13941;SDS011;7043;51.630;7.254;2022-10-10T03:58:08;11.67;;;10.47;;
13941;SDS011;7043;51.630;7.254;2022-10-10T04:00:34;11.43;;;10.30;;
13941;SDS011;7043;51.630;7.254;2022-10-10T04:03:01;11.13;;;9.93;;
13941;SDS011;7043;51.630;7.254;2022-10-10T04:05:36;12.67;;;10.10;;
13941;SDS011;7043;51.630;7.254;2022-10-10T04:08:03;10.80;;;9.70;;
13941;SDS011;7043;51.630;7.254;2022-10-10T04:10:29;10.17;;;9.13;;
13941;SDS011;7043;51.630;7.254;2022-10-10T04:12:55;11.00;;;9.07;;
13941;SDS011;7043;51.630;7.254;2022-10-10T04:15:21;11.40;;;9.40;;
13941;SDS011;7043;51.630;7.254;2022-10-10T04:17:48;9.63;;;8.73;;
13941;SDS011;7043;51.630;7.254;2022-10-10T04:20:14;10.37;;;8.80;;
13941;SDS011;7043;51.630;7.254;2022-10-10T04:22:40;11.80;;;8.60;;
13941;SDS011;7043;51.630;7.254;2022-10-10T04:25:06;9.90;;;8.90;;
13941;SDS011;7043;51.630;7.254;2022-10-10T04:27:32;9.80;;;8.77;;
13941;SDS011;7043;51.630;7.254;2022-10-10T04:29:58;10.80;;;8.77;;
13941;SDS011;7043;51.630;7.254;2022-10-10T04:32:24;9.53;;;8.63;;
13941;SDS011;7043;51.630;7.254;2022-10-10T04:34:50;8.53;;;7.60;;
13941;SDS011;7043;51.630;7.254;2022-10-10T04:37:16;8.03;;;7.23;;
13941;SDS011;7043;51.630;7.254;2022-10-10T04:39:42;8.20;;;7.30;;
13941;SDS011;7043;51.630;7.254;2022-10-10T04:42:08;7.93;;;7.13;;
13941;SDS011;7043;51.630;7.254;2022-10-10T04:44:35;8.63;;;7.30;;
13941;SDS011;7043;51.630;7.254;2022-10-10T04:47:01;7.90;;;7.10;;
13941;SDS011;7043;51.630;7.254;2022-10-10T04:49:27;8.20;;;7.20;;
13941;SDS011;7043;51.630;7.254;2022-10-10T04:51:53;9.23;;;7.73;;
13941;SDS011;7043;51.630;7.254;2022-10-10T04:54:19;10.07;;;7.77;;
13941;SDS011;7043;51.630;7.254;2022-10-10T04:56:45;9.30;;;8.23;;
13941;SDS011;7043;51.630;7.254;2022-10-10T04:59:11;8.80;;;7.30;;
13941;SDS011;7043;51.630;7.254;2022-10-10T05:01:37;8.50;;;7.67;;
13941;SDS011;7043;51.630;7.254;2022-10-10T05:04:03;9.63;;;8.07;;
13941;SDS011;7043;51.630;7.254;2022-10-10T05:06:29;8.45;;;7.43;;
13941;SDS011;7043;51.630;7.254;2022-10-10T05:08:55;11.30;;;7.17;;
13941;SDS011;7043;51.630;7.254;2022-10-10T05:11:21;8.23;;;6.80;;
13941;SDS011;7043;51.630;7.254;2022-10-10T05:13:47;10.07;;;7.67;;
13941;SDS011;7043;51.630;7.254;2022-10-10T05:16:14;7.73;;;7.03;;
13941;SDS011;7043;51.630;7.254;2022-10-10T05:18:41;8.57;;;7.67;;
13941;SDS011;7043;51.630;7.254;2022-10-10T05:21:07;7.50;;;6.53;;
13941;SDS011;7043;51.630;7.254;2022-10-10T05:23:34;9.33;;;7.87;;
13941;SDS011;7043;51.630;7.254;2022-10-10T05:26:01;6.97;;;6.27;;
13941;SDS011;7043;51.630;7.254;2022-10-10T05:28:27;8.23;;;6.87;;
13941;SDS011;7043;51.630;7.254;2022-10-10T05:30:53;8.93;;;7.10;;
13941;SDS011;7043;51.630;7.254;2022-10-10T05:33:19;9.40;;;6.43;;
13941;SDS011;7043;51.630;7.254;2022-10-10T05:35:45;7.60;;;6.30;;
13941;SDS011;7043;51.630;7.254;2022-10-10T05:38:11;10.57;;;6.03;;
13941;SDS011;7043;51.630;7.254;2022-10-10T05:40:38;6.93;;;6.07;;
13941;SDS011;7043;51.630;7.254;2022-10-10T05:43:04;8.77;;;6.50;;
13941;SDS011;7043;51.630;7.254;2022-10-10T05:45:30;7.13;;;5.80;;
13941;SDS011;7043;51.630;7.254;2022-10-10T05:47:56;7.37;;;5.70;;
13941;SDS011;7043;51.630;7.254;2022-10-10T05:50:32;9.93;;;5.57;;
13941;SDS011;7043;51.630;7.254;2022-10-10T05:52:58;8.93;;;5.83;;
13941;SDS011;7043;51.630;7.254;2022-10-10T05:55:24;8.63;;;5.33;;
13941;SDS011;7043;51.630;7.254;2022-10-10T05:57:50;6.93;;;5.20;;
13941;SDS011;7043;51.630;7.254;2022-10-10T06:00:16;6.67;;;4.90;;
13941;SDS011;7043;51.630;7.254;2022-10-10T06:02:42;6.27;;;5.03;;
13941;SDS011;7043;51.630;7.254;2022-10-10T06:05:08;8.70;;;5.13;;
13941;SDS011;7043;51.630;7.254;2022-10-10T06:07:35;7.97;;;5.83;;
13941;SDS011;7043;51.630;7.254;2022-10-10T06:10:01;6.07;;;4.63;;
13941;SDS011;7043;51.630;7.254;2022-10-10T06:12:27;7.67;;;4.93;;
13941;SDS011;7043;51.630;7.254;2022-10-10T06:14:53;6.97;;;4.90;;
13941;SDS011;7043;51.630;7.254;2022-10-10T06:17:19;8.30;;;4.70;;
13941;SDS011;7043;51.630;7.254;2022-10-10T06:19:45;7.87;;;4.90;;
13941;SDS011;7043;51.630;7.254;2022-10-10T06:22:10;8.40;;;5.10;;
13941;SDS011;7043;51.630;7.254;2022-10-10T06:24:36;6.47;;;4.93;;
13941;SDS011;7043;51.630;7.254;2022-10-10T06:27:02;9.40;;;5.13;;
13941;SDS011;7043;51.630;7.254;2022-10-10T06:29:28;10.00;;;5.33;;
13941;SDS011;7043;51.630;7.254;2022-10-10T06:31:54;11.23;;;5.73;;
13941;SDS011;7043;51.630;7.254;2022-10-10T06:34:20;6.47;;;5.17;;
13941;SDS011;7043;51.630;7.254;2022-10-10T06:36:48;6.70;;;5.07;;
13941;SDS011;7043;51.630;7.254;2022-10-10T06:39:14;7.50;;;5.00;;
13941;SDS011;7043;51.630;7.254;2022-10-10T06:41:40;7.93;;;4.80;;
13941;SDS011;7043;51.630;7.254;2022-10-10T06:44:06;6.80;;;5.00;;
13941;SDS011;7043;51.630;7.254;2022-10-10T06:46:32;7.43;;;5.20;;
13941;SDS011;7043;51.630;7.254;2022-10-10T06:49:01;7.27;;;4.87;;
13941;SDS011;7043;51.630;7.254;2022-10-10T06:51:28;6.63;;;4.90;;
13941;SDS011;7043;51.630;7.254;2022-10-10T06:53:55;6.53;;;4.90;;
13941;SDS011;7043;51.630;7.254;2022-10-10T06:56:21;6.67;;;5.30;;
13941;SDS011;7043;51.630;7.254;2022-10-10T06:58:47;7.67;;;5.53;;
13941;SDS011;7043;51.630;7.254;2022-10-10T07:01:15;8.47;;;4.83;;
13941;SDS011;7043;51.630;7.254;2022-10-10T07:03:42;6.67;;;5.53;;
13941;SDS011;7043;51.630;7.254;2022-10-10T07:06:08;8.00;;;5.10;;
13941;SDS011;7043;51.630;7.254;2022-10-10T07:08:35;6.90;;;4.70;;
13941;SDS011;7043;51.630;7.254;2022-10-10T07:11:01;7.50;;;4.80;;
13941;SDS011;7043;51.630;7.254;2022-10-10T07:13:28;5.80;;;4.67;;
13941;SDS011;7043;51.630;7.254;2022-10-10T07:15:54;7.17;;;4.70;;
13941;SDS011;7043;51.630;7.254;2022-10-10T07:18:20;7.33;;;5.03;;
13941;SDS011;7043;51.630;7.254;2022-10-10T07:20:46;8.53;;;5.20;;
13941;SDS011;7043;51.630;7.254;2022-10-10T07:23:12;6.00;;;4.47;;
13941;SDS011;7043;51.630;7.254;2022-10-10T07:25:39;6.07;;;4.93;;
13941;SDS011;7043;51.630;7.254;2022-10-10T07:28:06;6.77;;;5.17;;
13941;SDS011;7043;51.630;7.254;2022-10-10T07:30:33;9.03;;;5.17;;
13941;SDS011;7043;51.630;7.254;2022-10-10T07:32:59;7.73;;;5.53;;
13941;SDS011;7043;51.630;7.254;2022-10-10T07:35:25;7.10;;;5.30;;
13941;SDS011;7043;51.630;7.254;2022-10-10T07:37:54;8.60;;;5.10;;
13941;SDS011;7043;51.630;7.254;2022-10-10T07:40:20;8.83;;;5.67;;
13941;SDS011;7043;51.630;7.254;2022-10-10T07:42:47;9.03;;;5.67;;
13941;SDS011;7043;51.630;7.254;2022-10-10T07:45:13;7.63;;;5.10;;
13941;SDS011;7043;51.630;7.254;2022-10-10T07:47:39;6.53;;;5.10;;
13941;SDS011;7043;51.630;7.254;2022-10-10T07:50:05;7.90;;;5.30;;
13941;SDS011;7043;51.630;7.254;2022-10-10T07:52:32;10.20;;;5.60;;
13941;SDS011;7043;51.630;7.254;2022-10-10T07:54:59;6.53;;;5.20;;
13941;SDS011;7043;51.630;7.254;2022-10-10T07:57:25;8.43;;;4.60;;
13941;SDS011;7043;51.630;7.254;2022-10-10T07:59:51;7.63;;;5.30;;
13941;SDS011;7043;51.630;7.254;2022-10-10T08:02:17;8.33;;;5.40;;
13941;SDS011;7043;51.630;7.254;2022-10-10T08:04:43;9.00;;;4.77;;
13941;SDS011;7043;51.630;7.254;2022-10-10T08:07:08;8.03;;;4.77;;
13941;SDS011;7043;51.630;7.254;2022-10-10T08:09:34;5.83;;;4.20;;
13941;SDS011;7043;51.630;7.254;2022-10-10T08:12:00;6.40;;;4.47;;
13941;SDS011;7043;51.630;7.254;2022-10-10T08:14:26;5.50;;;4.67;;
13941;SDS011;7043;51.630;7.254;2022-10-10T08:16:52;6.57;;;4.47;;
13941;SDS011;7043;51.630;7.254;2022-10-10T08:19:18;5.17;;;3.83;;
13941;SDS011;7043;51.630;7.254;2022-10-10T08:21:44;6.70;;;4.13;;
13941;SDS011;7043;51.630;7.254;2022-10-10T08:24:10;6.67;;;4.07;;
13941;SDS011;7043;51.630;7.254;2022-10-10T08:26:36;7.07;;;4.20;;
13941;SDS011;7043;51.630;7.254;2022-10-10T08:29:02;5.73;;;4.00;;
13941;SDS011;7043;51.630;7.254;2022-10-10T08:31:28;7.30;;;4.40;;
13941;SDS011;7043;51.630;7.254;2022-10-10T08:33:55;6.97;;;4.33;;
13941;SDS011;7043;51.630;7.254;2022-10-10T08:36:21;5.23;;;4.00;;
13941;SDS011;7043;51.630;7.254;2022-10-10T08:38:48;8.93;;;4.50;;
13941;SDS011;7043;51.630;7.254;2022-10-10T08:41:30;5.40;;;4.03;;
13941;SDS011;7043;51.630;7.254;2022-10-10T08:43:59;9.67;;;4.20;;
13941;SDS011;7043;51.630;7.254;2022-10-10T08:48:52;5.83;;;3.90;;
13941;SDS011;7043;51.630;7.254;2022-10-10T08:51:25;6.33;;;3.87;;
13941;SDS011;7043;51.630;7.254;2022-10-10T08:53:53;8.67;;;4.00;;
13941;SDS011;7043;51.630;7.254;2022-10-10T08:56:22;5.73;;;3.60;;
13941;SDS011;7043;51.630;7.254;2022-10-10T08:58:49;6.30;;;3.73;;
13941;SDS011;7043;51.630;7.254;2022-10-10T09:01:21;7.07;;;4.47;;
13941;SDS011;7043;51.630;7.254;2022-10-10T09:03:52;6.47;;;3.50;;
13941;SDS011;7043;51.630;7.254;2022-10-10T09:06:38;7.73;;;3.60;;
13941;SDS011;7043;51.630;7.254;2022-10-10T09:22:22;8.53;;;4.00;;
13941;SDS011;7043;51.630;7.254;2022-10-10T09:24:49;6.83;;;3.60;;
13941;SDS011;7043;51.630;7.254;2022-10-10T09:27:18;7.47;;;3.90;;
13941;SDS011;7043;51.630;7.254;2022-10-10T09:29:51;7.93;;;3.73;;
13941;SDS011;7043;51.630;7.254;2022-10-10T09:32:26;6.33;;;3.80;;
13941;SDS011;7043;51.630;7.254;2022-10-10T09:35:11;5.83;;;3.60;;
13941;SDS011;7043;51.630;7.254;2022-10-10T09:37:38;6.17;;;3.50;;
13941;SDS011;7043;51.630;7.254;2022-10-10T09:40:14;9.30;;;3.33;;
13941;SDS011;7043;51.630;7.254;2022-10-10T09:42:42;6.00;;;3.20;;
13941;SDS011;7043;51.630;7.254;2022-10-10T09:45:13;5.53;;;3.20;;
13941;SDS011;7043;51.630;7.254;2022-10-10T09:47:41;5.87;;;3.17;;
13941;SDS011;7043;51.630;7.254;2022-10-10T09:50:10;6.63;;;3.00;;
13941;SDS011;7043;51.630;7.254;2022-10-10T09:52:37;6.63;;;2.83;;
13941;SDS011;7043;51.630;7.254;2022-10-10T09:55:04;7.43;;;3.03;;
13941;SDS011;7043;51.630;7.254;2022-10-10T09:57:37;6.83;;;2.73;;
13941;SDS011;7043;51.630;7.254;2022-10-10T10:00:37;7.43;;;2.90;;
13941;SDS011;7043;51.630;7.254;2022-10-10T10:03:03;6.10;;;2.70;;
13941;SDS011;7043;51.630;7.254;2022-10-10T10:05:29;5.57;;;3.07;;
13941;SDS011;7043;51.630;7.254;2022-10-10T10:07:56;5.63;;;3.53;;
13941;SDS011;7043;51.630;7.254;2022-10-10T10:10:23;7.63;;;3.30;;
13941;SDS011;7043;51.630;7.254;2022-10-10T10:12:50;6.55;;;2.88;;
13941;SDS011;7043;51.630;7.254;2022-10-10T10:15:18;8.63;;;2.80;;
13941;SDS011;7043;51.630;7.254;2022-10-10T10:17:45;7.47;;;3.40;;
13941;SDS011;7043;51.630;7.254;2022-10-10T10:22:56;7.73;;;2.73;;
13941;SDS011;7043;51.630;7.254;2022-10-10T10:25:32;5.63;;;2.50;;
13941;SDS011;7043;51.630;7.254;2022-10-10T10:28:20;7.03;;;2.80;;
13941;SDS011;7043;51.630;7.254;2022-10-10T10:30:46;6.10;;;2.78;;
13941;SDS011;7043;51.630;7.254;2022-10-10T10:36:10;5.33;;;2.80;;
13941;SDS011;7043;51.630;7.254;2022-10-10T10:38:52;7.03;;;2.73;;
13941;SDS011;7043;51.630;7.254;2022-10-10T10:43:55;5.30;;;2.90;;
13941;SDS011;7043;51.630;7.254;2022-10-10T10:51:52;6.80;;;2.53;;
13941;SDS011;7043;51.630;7.254;2022-10-10T10:56:51;9.10;;;2.70;;
13941;SDS011;7043;51.630;7.254;2022-10-10T11:01:50;5.93;;;2.38;;
13941;SDS011;7043;51.630;7.254;2022-10-10T11:07:28;8.55;;;2.78;;
13941;SDS011;7043;51.630;7.254;2022-10-10T11:09:54;6.22;;;2.38;;
13941;SDS011;7043;51.630;7.254;2022-10-10T11:12:26;5.05;;;2.50;;
13941;SDS011;7043;51.630;7.254;2022-10-10T11:14:58;6.10;;;2.47;;
13941;SDS011;7043;51.630;7.254;2022-10-10T11:17:29;6.40;;;2.45;;
13941;SDS011;7043;51.630;7.254;2022-10-10T11:20:00;5.93;;;3.10;;
13941;SDS011;7043;51.630;7.254;2022-10-10T11:22:28;6.40;;;2.67;;
13941;SDS011;7043;51.630;7.254;2022-10-10T11:27:26;5.22;;;2.40;;
13941;SDS011;7043;51.630;7.254;2022-10-10T11:29:57;7.57;;;2.58;;
13941;SDS011;7043;51.630;7.254;2022-10-10T11:32:28;6.43;;;2.33;;
13941;SDS011;7043;51.630;7.254;2022-10-10T11:37:27;5.78;;;2.22;;
13941;SDS011;7043;51.630;7.254;2022-10-10T11:39:56;6.30;;;2.63;;
13941;SDS011;7043;51.630;7.254;2022-10-10T11:42:28;6.40;;;2.47;;
13941;SDS011;7043;51.630;7.254;2022-10-10T11:44:58;4.68;;;2.10;;
13941;SDS011;7043;51.630;7.254;2022-10-10T11:47:26;6.15;;;2.20;;
13941;SDS011;7043;51.630;7.254;2022-10-10T11:52:28;5.80;;;2.58;;
13941;SDS011;7043;51.630;7.254;2022-10-10T11:55:09;7.47;;;2.78;;
13941;SDS011;7043;51.630;7.254;2022-10-10T11:57:39;9.00;;;2.78;;
13941;SDS011;7043;51.630;7.254;2022-10-10T12:00:09;7.38;;;2.70;;
13941;SDS011;7043;51.630;7.254;2022-10-10T12:02:37;6.80;;;2.60;;
13941;SDS011;7043;51.630;7.254;2022-10-10T12:05:04;7.32;;;2.60;;
13941;SDS011;7043;51.630;7.254;2022-10-10T12:10:17;5.00;;;2.45;;
13941;SDS011;7043;51.630;7.254;2022-10-10T12:12:47;8.15;;;2.97;;
13941;SDS011;7043;51.630;7.254;2022-10-10T12:15:21;6.35;;;3.13;;
13941;SDS011;7043;51.630;7.254;2022-10-10T12:17:50;6.78;;;2.67;;
13941;SDS011;7043;51.630;7.254;2022-10-10T12:22:46;8.93;;;3.13;;
13941;SDS011;7043;51.630;7.254;2022-10-10T12:25:34;8.30;;;3.00;;
13941;SDS011;7043;51.630;7.254;2022-10-10T12:35:50;8.27;;;3.35;;
13941;SDS011;7043;51.630;7.254;2022-10-10T12:38:22;6.13;;;3.05;;
13941;SDS011;7043;51.630;7.254;2022-10-10T12:48:43;7.78;;;3.08;;
13941;SDS011;7043;51.630;7.254;2022-10-10T12:51:17;9.38;;;3.10;;
13941;SDS011;7043;51.630;7.254;2022-10-10T12:53:46;7.97;;;3.42;;
13941;SDS011;7043;51.630;7.254;2022-10-10T12:56:14;9.82;;;3.40;;
13941;SDS011;7043;51.630;7.254;2022-10-10T12:58:40;6.82;;;3.20;;
13941;SDS011;7043;51.630;7.254;2022-10-10T13:01:25;9.68;;;3.30;;
13941;SDS011;7043;51.630;7.254;2022-10-10T13:03:53;9.27;;;3.85;;
13941;SDS011;7043;51.630;7.254;2022-10-10T13:08:46;7.47;;;3.20;;
13941;SDS011;7043;51.630;7.254;2022-10-10T13:11:13;8.30;;;3.50;;
13941;SDS011;7043;51.630;7.254;2022-10-10T13:13:44;10.48;;;3.55;;
13941;SDS011;7043;51.630;7.254;2022-10-10T13:16:14;5.93;;;3.45;;
13941;SDS011;7043;51.630;7.254;2022-10-10T13:18:47;7.93;;;3.42;;
13941;SDS011;7043;51.630;7.254;2022-10-10T13:21:14;6.72;;;3.58;;
13941;SDS011;7043;51.630;7.254;2022-10-10T13:23:43;7.47;;;3.28;;
13941;SDS011;7043;51.630;7.254;2022-10-10T13:26:17;8.40;;;3.40;;
13941;SDS011;7043;51.630;7.254;2022-10-10T13:28:44;10.65;;;4.15;;
13941;SDS011;7043;51.630;7.254;2022-10-10T13:31:11;8.98;;;3.65;;
13941;SDS011;7043;51.630;7.254;2022-10-10T13:33:37;8.13;;;3.55;;
13941;SDS011;7043;51.630;7.254;2022-10-10T13:36:05;8.35;;;3.33;;
13941;SDS011;7043;51.630;7.254;2022-10-10T13:38:32;6.60;;;3.50;;
13941;SDS011;7043;51.630;7.254;2022-10-10T13:40:59;7.50;;;3.38;;
13941;SDS011;7043;51.630;7.254;2022-10-10T13:43:26;8.82;;;3.83;;
13941;SDS011;7043;51.630;7.254;2022-10-10T13:45:56;9.23;;;3.67;;
13941;SDS011;7043;51.630;7.254;2022-10-10T13:51:02;6.60;;;3.60;;
13941;SDS011;7043;51.630;7.254;2022-10-10T13:58:25;9.00;;;3.35;;
13941;SDS011;7043;51.630;7.254;2022-10-10T14:00:58;8.05;;;3.15;;
13941;SDS011;7043;51.630;7.254;2022-10-10T14:03:24;11.63;;;3.70;;
13941;SDS011;7043;51.630;7.254;2022-10-10T14:05:50;8.93;;;4.13;;
13941;SDS011;7043;51.630;7.254;2022-10-10T14:08:18;9.10;;;3.70;;
13941;SDS011;7043;51.630;7.254;2022-10-10T14:11:01;9.93;;;3.90;;
13941;SDS011;7043;51.630;7.254;2022-10-10T14:13:29;10.02;;;3.95;;
13941;SDS011;7043;51.630;7.254;2022-10-10T14:16:10;9.75;;;3.88;;
13941;SDS011;7043;51.630;7.254;2022-10-10T14:18:37;10.73;;;3.70;;
13941;SDS011;7043;51.630;7.254;2022-10-10T14:21:03;9.48;;;3.92;;
13941;SDS011;7043;51.630;7.254;2022-10-10T14:23:29;9.23;;;3.80;;
13941;SDS011;7043;51.630;7.254;2022-10-10T14:25:55;8.98;;;3.40;;
13941;SDS011;7043;51.630;7.254;2022-10-10T14:28:25;6.60;;;2.80;;
13941;SDS011;7043;51.630;7.254;2022-10-10T14:30:52;6.22;;;2.47;;
13941;SDS011;7043;51.630;7.254;2022-10-10T14:33:18;8.27;;;2.83;;
13941;SDS011;7043;51.630;7.254;2022-10-10T14:35:44;8.00;;;3.05;;
13941;SDS011;7043;51.630;7.254;2022-10-10T14:38:12;7.10;;;2.63;;
13941;SDS011;7043;51.630;7.254;2022-10-10T14:40:39;7.80;;;2.60;;
13941;SDS011;7043;51.630;7.254;2022-10-10T14:43:05;7.35;;;2.88;;
13941;SDS011;7043;51.630;7.254;2022-10-10T14:45:32;8.57;;;2.67;;
13941;SDS011;7043;51.630;7.254;2022-10-10T14:47:58;6.57;;;2.80;;
13941;SDS011;7043;51.630;7.254;2022-10-10T14:50:25;9.48;;;3.03;;
13941;SDS011;7043;51.630;7.254;2022-10-10T14:52:51;7.85;;;2.95;;
13941;SDS011;7043;51.630;7.254;2022-10-10T14:55:17;6.22;;;2.85;;
13941;SDS011;7043;51.630;7.254;2022-10-10T14:57:43;6.57;;;2.95;;
13941;SDS011;7043;51.630;7.254;2022-10-10T15:00:13;8.60;;;3.13;;
13941;SDS011;7043;51.630;7.254;2022-10-10T15:02:40;6.20;;;2.90;;
13941;SDS011;7043;51.630;7.254;2022-10-10T15:05:06;9.00;;;3.63;;
13941;SDS011;7043;51.630;7.254;2022-10-10T15:07:32;8.70;;;3.83;;
13941;SDS011;7043;51.630;7.254;2022-10-10T15:09:58;9.15;;;3.35;;
13941;SDS011;7043;51.630;7.254;2022-10-10T15:12:23;9.80;;;4.50;;
13941;SDS011;7043;51.630;7.254;2022-10-10T15:14:49;5.70;;;3.60;;
13941;SDS011;7043;51.630;7.254;2022-10-10T15:17:15;6.45;;;3.55;;
13941;SDS011;7043;51.630;7.254;2022-10-10T15:19:41;6.88;;;3.08;;
13941;SDS011;7043;51.630;7.254;2022-10-10T15:22:07;7.18;;;4.40;;
13941;SDS011;7043;51.630;7.254;2022-10-10T15:24:34;6.88;;;3.45;;
13941;SDS011;7043;51.630;7.254;2022-10-10T15:27:00;7.75;;;3.72;;
13941;SDS011;7043;51.630;7.254;2022-10-10T15:29:26;12.43;;;5.83;;
13941;SDS011;7043;51.630;7.254;2022-10-10T15:31:52;8.20;;;3.50;;
13941;SDS011;7043;51.630;7.254;2022-10-10T15:34:21;6.03;;;4.30;;
13941;SDS011;7043;51.630;7.254;2022-10-10T15:36:47;8.37;;;3.87;;
13941;SDS011;7043;51.630;7.254;2022-10-10T15:39:14;6.50;;;3.95;;
13941;SDS011;7043;51.630;7.254;2022-10-10T15:41:40;8.67;;;5.37;;
13941;SDS011;7043;51.630;7.254;2022-10-10T15:44:11;8.93;;;3.70;;
13941;SDS011;7043;51.630;7.254;2022-10-10T15:46:38;9.70;;;3.95;;
13941;SDS011;7043;51.630;7.254;2022-10-10T15:49:04;7.13;;;4.50;;
13941;SDS011;7043;51.630;7.254;2022-10-10T15:51:30;8.77;;;3.65;;
13941;SDS011;7043;51.630;7.254;2022-10-10T15:53:56;8.95;;;4.40;;
13941;SDS011;7043;51.630;7.254;2022-10-10T15:56:22;6.47;;;4.20;;
13941;SDS011;7043;51.630;7.254;2022-10-10T15:58:53;7.50;;;4.70;;
13941;SDS011;7043;51.630;7.254;2022-10-10T16:01:19;6.97;;;5.27;;
13941;SDS011;7043;51.630;7.254;2022-10-10T16:03:45;9.37;;;4.53;;
13941;SDS011;7043;51.630;7.254;2022-10-10T16:06:12;10.50;;;5.10;;
13941;SDS011;7043;51.630;7.254;2022-10-10T16:08:39;7.93;;;5.40;;
13941;SDS011;7043;51.630;7.254;2022-10-10T16:11:09;9.47;;;6.13;;
13941;SDS011;7043;51.630;7.254;2022-10-10T16:13:36;9.80;;;5.93;;
13941;SDS011;7043;51.630;7.254;2022-10-10T16:16:03;10.23;;;7.07;;
13941;SDS011;7043;51.630;7.254;2022-10-10T16:18:30;8.43;;;5.87;;
13941;SDS011;7043;51.630;7.254;2022-10-10T16:20:57;11.73;;;6.73;;
13941;SDS011;7043;51.630;7.254;2022-10-10T16:23:23;9.67;;;6.57;;
13941;SDS011;7043;51.630;7.254;2022-10-10T16:25:58;9.67;;;6.80;;
13941;SDS011;7043;51.630;7.254;2022-10-10T16:28:24;11.10;;;7.50;;
13941;SDS011;7043;51.630;7.254;2022-10-10T16:30:50;12.10;;;8.27;;
13941;SDS011;7043;51.630;7.254;2022-10-10T16:33:16;9.80;;;8.00;;
13941;SDS011;7043;51.630;7.254;2022-10-10T16:35:42;11.50;;;7.57;;
13941;SDS011;7043;51.630;7.254;2022-10-10T16:38:08;10.67;;;7.67;;
13941;SDS011;7043;51.630;7.254;2022-10-10T16:40:34;10.23;;;7.47;;